Ucluelet, Canada
Current Conditions -  °F | °C
As of 5:00 PM on Thursday 27 Nov 2014 (Local Time) from CYAZ Reporting Station
Haze Haze  
Wind Chill: 12°   Ceiling: 1300
Heat Index: 12°   Visibility: 1.5mi
Dew Point: 12°   Wind: 3mph
Humidity: 100%   Direction: NA
Pressure: 29.61"   Gusts: NA
Location:  48.94°N, 125.54°W
Report Text: CYAZ 280100Z VRB03KT 1 1/2SM BR FEW006 BKN013 BKN020 BKN230 12/12 A2961 RMK SF2CF3SC2CC1 CC TR LAST OBS/NEXT 281500UTC SLP028 DENSITY ALT 100FT
Loading
Personal Weather Stations






























Interactive Weather Map New forecast layout! Learn more

10-Day Weather Forecast

Advertisements
Track Severe Weather on mobile